Terminal Aerodrome Forecast
Issued by NWS Sterling, VA

Current Version | Previous Version | Graphics & Text | Print | Product List | Glossary On
Versions: 1 2 3 4 5 6 7 8 9 10 11 12 13 14 15 16 17 18 19 20 21 22
000
FTUS41 KLWX 202102 AAA
TAFMRB
TAF AMD
KMRB 202102Z 2021/2118 17010G17KT P6SM SCT250
     FM210500 20006KT P6SM FEW025 SCT250
     FM211600 21010G18KT P6SM SCT035 BKN150=

USA.gov is the U.S. government's official web portal to all federal, state and local government web resources and services.